Time;durP1;ratioP1;P1;durP2;ratioP2;P2;SDS_P1;SDS_P2;PMS_P1;PMS_P2;Temp;Humidity;BMP_temperature;BMP_pressure;BME280_temperature;BME280_humidity;BME280_pressure;Samples;Min_cycle;Max_cycle;Signal;HPM_P1;HPM_P2
2022/02/11 00:00:36;;;;;;;17.20;8.90;;;4.40;99.90;;;;;;5071856;28;20028;-61
2022/02/11 00:07:56;;;;;;;21.30;8.85;;;4.30;99.90;;;;;;5071832;28;20056;-61
2022/02/11 00:10:23;;;;;;;18.98;8.98;;;4.30;99.90;;;;;;5070893;28;20472;-63
2022/02/11 00:12:49;;;;;;;20.00;8.73;;;4.30;99.90;;;;;;5071649;28;20103;-61
2022/02/11 00:15:37;;;;;;;19.52;8.75;;;4.40;99.90;;;;;;5071689;28;20063;-62
2022/02/11 00:18:03;;;;;;;18.27;8.43;;;4.30;99.90;;;;;;5071602;28;20025;-62
2022/02/11 00:20:29;;;;;;;19.73;9.35;;;4.40;99.90;;;;;;5071601;28;20040;-62
2022/02/11 00:22:55;;;;;;;20.67;8.40;;;4.30;99.90;;;;;;5070609;28;20039;-61
2022/02/11 00:25:21;;;;;;;19.10;8.90;;;4.40;99.90;;;;;;5071210;28;20028;-62
2022/02/11 00:33:25;;;;;;;19.45;9.45;;;4.40;99.90;;;;;;5055281;28;20032;-63
2022/02/11 00:36:03;;;;;;;20.00;9.23;;;4.40;99.90;;;;;;5071592;28;20049;-64
2022/02/11 00:46:18;;;;;;;18.35;8.55;;;4.30;99.90;;;;;;5075303;28;20028;-64
2022/02/11 01:02:30;;;;;;;20.95;9.82;;;;;;;;;;5094781;28;20039;-63
2022/02/11 01:04:56;;;;;;;19.75;8.65;;;;;;;;;;5094050;28;20042;-63
2022/02/11 01:07:23;;;;;;;21.88;10.15;;;;;;;;;;5075957;28;20028;-63
2022/02/11 01:09:49;;;;;;;18.77;9.82;;;;;;;;;;5075872;28;20024;-62
2022/02/11 01:12:15;;;;;;;21.08;9.95;;;;;;;;;;5094157;28;20020;-64
2022/02/11 01:14:50;;;;;;;19.25;10.10;;;;;;;;;;5093787;28;20060;-64
2022/02/11 01:17:29;;;;;;;21.17;10.13;;;;;;;;;;5075894;28;20396;-62
2022/02/11 01:20:11;;;;;;;20.20;11.20;;;;;;;;;;5094121;28;20012;-63
2022/02/11 01:38:05;;;;;;;23.17;11.18;;;;;;;;;;5093858;28;20032;-65
2022/02/11 01:51:22;;;;;;;23.50;13.32;;;;;;;;;;5093676;28;20420;-64
2022/02/11 01:54:07;;;;;;;21.88;11.70;;;;;;;;;;5075471;28;20064;-68
2022/02/11 02:18:48;;;;;;;28.45;16.95;;;;;;;;;;5093225;28;20495;-67
2022/02/11 02:25:59;;;;;;;36.38;15.65;;;;;;;;;;5093057;28;20051;-64
2022/02/11 02:58:30;;;;;;;25.55;13.82;;;;;;;;;;5092683;28;20031;-65
2022/02/11 03:01:16;;;;;;;23.98;13.75;;;;;;;;;;5092410;28;20024;-65
2022/02/11 03:17:58;;;;;;;24.52;12.82;;;;;;;;;;5092291;28;20549;-66
2022/02/11 04:23:08;;;;;;;26.73;23.92;;;;;;;;;;5091613;28;20039;-66
2022/02/11 04:53:31;;;;;;;23.27;19.70;;;;;;;;;;5091093;28;20035;-63
2022/02/11 04:55:37;;;;;;;25.83;20.55;;;;;;;;;;5090059;28;20130;-64
2022/02/11 05:00:48;;;;;;;28.17;20.42;;;;;;;;;;5091111;28;20097;-66
2022/02/11 05:03:15;;;;;;;21.85;18.80;;;;;;;;;;5091284;28;20106;-67
2022/02/11 05:05:50;;;;;;;25.55;20.42;;;;;;;;;;5089454;28;20100;-64
2022/02/11 05:08:16;;;;;;;27.42;21.20;;;;;;;;;;5090834;28;20027;-65
2022/02/11 05:10:43;;;;;;;22.58;19.63;;;;;;;;;;5072272;28;20020;-63
2022/02/11 05:13:09;;;;;;;30.92;21.08;;;;;;;;;;5090706;28;20394;-65
2022/02/11 05:15:35;;;;;;;23.38;20.33;;;;;;;;;;5090266;28;20106;-63
2022/02/11 05:18:02;;;;;;;24.92;21.52;;;;;;;;;;5090730;28;20024;-65
2022/02/11 05:20:28;;;;;;;24.27;20.50;;;;;;;;;;5090552;28;20043;-66
2022/02/11 05:22:54;;;;;;;27.90;21.77;;;;;;;;;;5090713;28;20427;-64
2022/02/11 05:25:20;;;;;;;28.60;21.58;;;;;;;;;;5090177;28;20051;-67
2022/02/11 05:27:46;;;;;;;25.52;22.15;;;;;;;;;;5092115;28;20028;-66
2022/02/11 05:30:12;;;;;;;27.42;22.42;;;;;;;;;;5075853;28;20020;-64
2022/02/11 05:32:38;;;;;;;29.02;22.30;;;;;;;;;;5093771;28;20337;-66
2022/02/11 05:35:05;;;;;;;28.52;19.90;;;;;;;;;;5075472;28;20123;-65
2022/02/11 05:37:30;;;;;;;25.77;21.20;;;;;;;;;;5094001;28;20364;-63
2022/02/11 05:39:57;;;;;;;30.20;21.33;;;;;;;;;;5075923;28;20093;-66
2022/02/11 05:42:23;;;;;;;30.65;22.13;;;;;;;;;;5093797;28;20020;-66
2022/02/11 05:44:49;;;;;;;29.65;21.50;;;;;;;;;;5093780;28;20548;-65
2022/02/11 05:47:15;;;;;;;25.48;20.77;;;4.10;99.90;;;;;;5075662;28;20024;-67
2022/02/11 05:49:40;;;;;;;28.67;21.98;;;3.60;99.90;;;;;;5093652;28;20115;-64
2022/02/11 05:52:07;;;;;;;26.13;19.92;;;3.60;99.90;;;;;;5093506;28;20052;-62
2022/02/11 05:54:32;;;;;;;33.45;21.13;;;3.60;99.90;;;;;;5093636;28;20023;-63
2022/02/11 05:56:58;;;;;;;26.30;19.15;;;3.60;99.90;;;;;;5093254;28;20036;-62
2022/02/11 05:59:24;;;;;;;28.25;19.75;;;3.60;99.90;;;;;;5093730;28;20071;-64
2022/02/11 06:01:49;;;;;;;24.60;19.83;;;3.70;99.90;;;;;;5093537;28;20452;-67
2022/02/11 06:04:15;;;;;;;21.73;17.95;;;3.70;99.90;;;;;;5093448;28;20400;-66
2022/02/11 06:06:40;;;;;;;24.45;18.83;;;3.70;99.90;;;;;;5074909;28;20494;-64
2022/02/11 06:09:06;;;;;;;22.80;17.45;;;3.80;99.90;;;;;;5093459;28;20024;-64
2022/02/11 06:11:32;;;;;;;22.50;17.23;;;3.80;99.90;;;;;;5093221;28;20032;-66
2022/02/11 06:13:58;;;;;;;19.58;14.90;;;3.90;99.90;;;;;;5074853;28;20498;-65
2022/02/11 06:16:24;;;;;;;26.83;16.73;;;3.90;99.90;;;;;;5093162;28;20036;-66
2022/02/11 06:18:50;;;;;;;22.92;15.93;;;4.00;99.90;;;;;;5093174;28;20026;-62
2022/02/11 06:21:16;;;;;;;20.10;15.80;;;4.00;99.90;;;;;;5093448;28;20669;-67
2022/02/11 06:23:42;;;;;;;21.77;16.52;;;4.00;99.90;;;;;;5093193;28;20039;-67
2022/02/11 06:26:08;;;;;;;21.05;14.57;;;4.10;99.90;;;;;;5092345;28;20376;-67
2022/02/11 06:28:34;;;;;;;20.45;14.07;;;4.10;99.90;;;;;;5092587;28;20398;-56
2022/02/11 06:31:00;;;;;;;20.10;13.27;;;4.10;99.90;;;;;;5074354;28;20016;-65
2022/02/11 06:33:25;;;;;;;21.13;10.95;;;4.20;99.90;;;;;;5092956;28;20028;-66
2022/02/11 06:35:51;;;;;;;20.45;11.80;;;4.30;99.90;;;;;;5092114;28;20385;-62
2022/02/11 06:38:17;;;;;;;17.10;9.90;;;4.30;99.90;;;;;;5092278;28;20036;-67
2022/02/11 06:40:43;;;;;;;19.70;9.90;;;4.30;99.90;;;;;;5091889;28;20567;-63
2022/02/11 06:43:10;;;;;;;17.50;8.90;;;4.40;99.90;;;;;;5092160;28;20134;-60
2022/02/11 06:45:36;;;;;;;17.42;8.90;;;4.40;99.90;;;;;;5091562;28;20023;-65
2022/02/11 06:48:04;;;;;;;15.82;8.38;;;4.40;99.90;;;;;;5092098;28;20017;-63
2022/02/11 06:50:30;;;;;;;16.27;7.72;;;4.50;99.90;;;;;;5092095;28;20012;-69
2022/02/11 06:52:55;;;;;;;21.88;7.72;;;4.50;99.90;;;;;;5092238;28;20020;-65
2022/02/11 06:55:24;;;;;;;19.88;7.97;;;4.60;99.90;;;;;;5091057;28;20472;-63
2022/02/11 06:57:53;;;;;;;16.58;6.40;;;4.60;99.90;;;;;;5106981;22;20040;-61
2022/02/11 07:00:19;;;;;;;;;;;4.80;99.90;;;;;;5076510;28;20367;-65
2022/02/11 07:02:45;;;;;;;23.13;7.47;;;4.90;99.90;;;;;;5075510;28;19904;-58
2022/02/11 07:05:11;;;;;;;14.95;6.45;;;5.00;99.90;;;;;;5092840;28;20543;-62
2022/02/11 07:07:37;;;;;;;18.70;6.60;;;5.00;99.90;;;;;;5076072;28;20365;-61
2022/02/11 07:10:03;;;;;;;25.27;8.45;;;4.90;99.90;;;;;;5093442;28;20020;-66
2022/02/11 07:12:29;;;;;;;23.58;8.23;;;4.90;99.90;;;;;;5075646;28;20024;-66
2022/02/11 07:14:54;;;;;;;16.02;5.95;;;5.00;99.90;;;;;;5074407;28;20115;-64
2022/02/11 07:17:20;;;;;;;15.23;5.95;;;;;;;;;;5074877;28;20035;-54
2022/02/11 07:22:50;;;;;;;21.80;7.57;;;;;;;;;;5093073;28;20018;-61
2022/02/11 07:25:16;;;;;;;21.17;5.85;;;;;;;;;;5092977;28;20500;-61
2022/02/11 07:27:42;;;;;;;18.35;6.10;;;5.00;99.90;;;;;;5092848;28;20024;-61
2022/02/11 07:30:08;;;;;;;21.73;6.25;;;4.80;99.90;;;;;;5092663;28;20020;-58
2022/02/11 07:32:34;;;;;;;15.02;6.20;;;4.70;99.90;;;;;;5092650;28;20028;-56
2022/02/11 07:35:02;;;;;;;22.27;6.43;;;4.70;99.90;;;;;;5092642;28;20040;-61
2022/02/11 07:37:30;;;;;;;17.13;6.35;;;4.70;99.90;;;;;;5074368;28;20024;-54
2022/02/11 07:39:58;;;;;;;16.73;6.03;;;4.70;99.90;;;;;;5092547;28;20028;-62
2022/02/11 07:42:25;;;;;;;20.20;6.80;;;4.70;99.90;;;;;;5093118;28;20383;-64
2022/02/11 07:44:52;;;;;;;20.03;6.20;;;4.70;99.90;;;;;;5092769;28;20032;-65
2022/02/11 07:47:18;;;;;;;23.38;6.95;;;4.70;99.90;;;;;;5092283;28;20281;-65
2022/02/11 07:49:44;;;;;;;21.63;6.63;;;4.70;99.90;;;;;;5092297;28;20081;-61
2022/02/11 07:52:09;;;;;;;21.67;7.43;;;4.70;99.90;;;;;;5092236;28;20419;-61
2022/02/11 07:54:35;;;;;;;17.15;6.95;;;4.70;99.90;;;;;;5092391;28;20017;-59
2022/02/11 07:57:00;;;;;;;21.58;7.68;;;4.70;99.90;;;;;;5092879;28;20142;-66
2022/02/11 07:59:26;;;;;;;21.65;7.03;;;4.70;99.90;;;;;;5074252;28;20024;-61
2022/02/11 08:01:52;;;;;;;17.15;6.50;;;4.70;99.90;;;;;;5092327;28;20028;-62
2022/02/11 08:04:17;;;;;;;17.02;5.97;;;4.70;99.90;;;;;;5092219;28;20424;-59
2022/02/11 08:06:43;;;;;;;15.90;5.90;;;4.70;99.90;;;;;;5092291;28;20377;-57
2022/02/11 08:09:09;;;;;;;17.02;5.93;;;4.70;99.90;;;;;;5092151;28;20047;-63
2022/02/11 08:11:34;;;;;;;15.82;6.18;;;4.70;99.90;;;;;;5092588;28;20020;-61
2022/02/11 08:14:00;;;;;;;15.38;5.63;;;4.70;99.90;;;;;;5092572;28;20024;-63
2022/02/11 08:16:26;;;;;;;15.32;5.40;;;4.70;99.90;;;;;;5074101;28;20020;-63
2022/02/11 08:18:52;;;;;;;17.75;5.75;;;4.70;99.90;;;;;;5092497;28;20472;-61
2022/02/11 08:21:17;;;;;;;15.43;5.72;;;4.60;99.90;;;;;;5092520;28;20036;-65
2022/02/11 08:23:44;;;;;;;18.38;5.85;;;4.70;99.90;;;;;;5073905;28;20073;-62
2022/02/11 08:26:10;;;;;;;21.02;6.50;;;4.70;99.90;;;;;;5091963;28;20024;-61
2022/02/11 08:28:36;;;;;;;17.05;6.05;;;4.60;99.90;;;;;;5092120;28;20030;-61
2022/02/11 08:31:02;;;;;;;18.75;5.78;;;4.70;99.90;;;;;;5091844;28;20484;-59
2022/02/11 08:33:28;;;;;;;18.88;5.78;;;4.70;99.90;;;;;;5092011;28;20396;-60
2022/02/11 08:35:56;;;;;;;17.00;5.55;;;4.70;99.90;;;;;;5092328;28;20024;-64
2022/02/11 08:38:24;;;;;;;16.58;6.18;;;4.70;99.90;;;;;;5073852;28;20024;-58
2022/02/11 08:40:50;;;;;;;17.50;5.85;;;4.80;99.90;;;;;;5091767;28;20106;-60
2022/02/11 08:43:17;;;;;;;17.88;5.72;;;4.90;99.90;;;;;;5091888;28;20043;-60
2022/02/11 08:45:43;;;;;;;16.05;6.75;;;5.00;99.90;;;;;;5092290;28;20115;-59
2022/02/11 08:48:10;;;;;;;18.65;6.57;;;5.00;99.90;;;;;;5092422;28;20095;-61
2022/02/11 08:50:38;;;;;;;16.48;5.80;;;5.00;99.90;;;;;;5092657;28;20078;-63
2022/02/11 08:53:04;;;;;;;17.58;5.80;;;5.00;99.90;;;;;;5091758;28;20016;-57
2022/02/11 08:55:30;;;;;;;14.82;5.28;;;5.00;99.90;;;;;;5091268;28;20453;-55
2022/02/11 08:57:59;;;;;;;20.25;6.18;;;5.00;99.90;;;;;;5091088;28;20032;-60
2022/02/11 09:00:26;;;;;;;21.30;6.03;;;5.00;99.90;;;;;;5072618;28;20028;-59
2022/02/11 09:02:52;;;;;;;19.02;4.88;;;5.00;99.90;;;;;;5092095;28;20028;-59
2022/02/11 09:05:21;;;;;;;16.23;6.15;;;5.10;99.90;;;;;;5093828;28;20035;-62
2022/02/11 09:07:51;;;;;;;25.20;7.13;;;5.10;99.90;;;;;;5094263;28;20024;-58
2022/02/11 09:10:17;;;;;;;15.73;5.72;;;5.10;99.90;;;;;;5094580;28;20031;-54
2022/02/11 09:12:42;;;;;;;19.48;6.68;;;5.10;99.90;;;;;;5094322;28;20020;-54
2022/02/11 09:15:08;;;;;;;15.07;5.65;;;5.20;99.90;;;;;;5075432;28;20025;-56
2022/02/11 09:17:34;;;;;;;17.55;5.55;;;5.20;99.90;;;;;;5093977;28;20099;-57
2022/02/11 09:19:59;;;;;;;20.27;6.32;;;5.30;99.90;;;;;;5094271;28;20040;-55
2022/02/11 09:22:25;;;;;;;15.57;5.20;;;5.30;99.90;;;;;;5094109;28;20050;-55
2022/02/11 09:24:53;;;;;;;19.55;5.63;;;5.30;99.90;;;;;;5093653;28;20062;-58
2022/02/11 09:27:19;;;;;;;22.02;6.32;;;5.30;99.90;;;;;;5075868;28;20476;-61
2022/02/11 09:29:45;;;;;;;25.20;5.95;;;5.20;99.90;;;;;;5094167;28;20053;-60
2022/02/11 09:32:11;;;;;;;15.55;5.20;;;5.30;99.90;;;;;;5094993;28;20035;-58
2022/02/11 09:34:37;;;;;;;15.68;5.40;;;5.40;99.90;;;;;;5068356;28;20024;-66
2022/02/11 09:37:03;;;;;;;16.38;5.75;;;5.50;99.90;;;;;;5075662;28;20105;-57
2022/02/11 09:39:29;;;;;;;21.45;5.78;;;5.70;99.90;;;;;;5091749;28;20616;-57
2022/02/11 09:41:55;;;;;;;19.33;5.72;;;5.90;99.90;;;;;;5093750;28;20027;-62
2022/02/11 09:44:24;;;;;;;14.32;4.93;;;6.00;99.90;;;;;;5094119;28;20081;-63
2022/02/11 09:46:51;;;;;;;20.75;6.10;;;6.00;99.90;;;;;;5076009;28;20024;-60
2022/02/11 09:49:17;;;;;;;16.80;5.55;;;;;;;;;;5076297;28;20078;-60
2022/02/11 09:51:45;;;;;;;18.33;6.38;;;;;;;;;;5094133;28;20023;-62
2022/02/11 09:54:15;;;;;;;18.92;6.47;;;;;;;;;;5070101;28;20112;-60
2022/02/11 09:56:41;;;;;;;18.50;4.97;;;;;;;;;;5044340;28;1079116;-60
2022/02/11 09:59:07;;;;;;;18.77;6.53;;;;;;;;;;5084963;28;20024;-61
2022/02/11 10:01:33;;;;;;;23.35;5.43;;;;;;;;;;5065152;28;20025;-63
2022/02/11 10:04:19;;;;;;;16.13;5.57;;;;;;;;;;5082907;28;20024;-62
2022/02/11 10:06:50;;;;;;;39.53;20.60;;;;;;;;;;5090337;28;20032;-59
2022/02/11 10:09:22;;;;;;;23.25;6.35;;;;;;;;;;5076167;28;20141;-60
2022/02/11 10:11:48;;;;;;;16.38;6.53;;;;;;;;;;5076324;28;20028;-62
2022/02/11 10:14:26;;;;;;;14.60;6.07;;;;;;;;;;5093157;28;20530;-58
2022/02/11 10:17:01;;;;;;;17.50;6.07;;;;;;;;;;5094981;28;20545;-60
2022/02/11 10:19:36;;;;;;;17.48;6.05;;;;;;;;;;5094559;28;20024;-61
2022/02/11 10:22:19;;;;;;;19.30;5.65;;;;;;;;;;5094282;28;20024;-57
2022/02/11 10:24:46;;;;;;;14.45;5.65;;;;;;;;;;5093688;28;20035;-59
2022/02/11 10:27:18;;;;;;;20.63;5.65;;;;;;;;;;5093882;28;20042;-56
2022/02/11 10:29:45;;;;;;;17.98;5.72;;;;;;;;;;5093954;28;20484;-61
2022/02/11 10:32:10;;;;;;;15.48;5.32;;;;;;;;;;5094104;28;20400;-59
2022/02/11 10:34:39;;;;;;;17.63;5.53;;;6.00;99.90;;;;;;5075941;28;20024;-59
2022/02/11 10:37:09;;;;;;;15.68;5.72;;;5.70;99.90;;;;;;5093983;28;20032;-58
2022/02/11 10:39:37;;;;;;;15.82;6.07;;;5.70;99.90;;;;;;5093819;28;20510;-60
2022/02/11 10:42:06;;;;;;;13.55;5.10;;;5.80;99.90;;;;;;4741221;28;10001243;-54
2022/02/11 10:44:38;;;;;;;15.90;5.60;;;5.80;99.90;;;;;;5086390;28;20033;-61
2022/02/11 10:47:12;;;;;;;17.45;5.88;;;5.80;99.90;;;;;;5091951;28;20038;-58
2022/02/11 10:49:40;;;;;;;19.42;6.47;;;5.80;99.90;;;;;;4703435;28;9999602;-60
2022/02/11 10:52:18;;;;;;;13.43;5.90;;;5.90;99.90;;;;;;5070389;28;20127;-57
2022/02/11 10:54:51;;;;;;;;;;;5.90;99.90;;;;;;5074717;28;20036;-56
2022/02/11 10:57:26;;;;;;;20.88;6.55;;;6.00;99.90;;;;;;5072982;28;20023;-59
2022/02/11 10:59:52;;;;;;;23.65;6.53;;;6.00;99.90;;;;;;5073076;28;20492;-58
2022/02/11 11:02:21;;;;;;;14.40;5.30;;;6.00;99.90;;;;;;5063786;28;20038;-59
2022/02/11 11:04:47;;;;;;;;;;;5.90;99.90;;;;;;5093723;28;20543;-58
2022/02/11 11:07:21;;;;;;;14.05;5.40;;;5.90;99.90;;;;;;5074904;28;19908;-57
2022/02/11 11:09:48;;;;;;;17.95;5.47;;;5.90;99.90;;;;;;5093258;28;20020;-59
2022/02/11 11:12:15;;;;;;;21.25;7.15;;;5.90;99.90;;;;;;5093111;28;20103;-58
2022/02/11 11:14:42;;;;;;;15.38;6.78;;;5.70;99.90;;;;;;5082999;28;20480;-60
2022/02/11 11:17:08;;;;;;;20.25;8.48;;;5.60;99.90;;;;;;5089387;28;20134;-57
2022/02/11 11:19:36;;;;;;;21.60;8.98;;;5.50;99.90;;;;;;5093550;28;20116;-59
2022/02/11 11:22:11;;;;;;;21.25;18.98;;;5.40;99.90;;;;;;5093421;28;20069;-56
2022/02/11 11:25:04;;;;;;;21.75;18.55;;;5.10;99.90;;;;;;5092941;28;20032;-59
2022/02/11 11:27:51;;;;;;;28.60;26.05;;;5.00;99.90;;;;;;5092669;28;20032;-59
2022/02/11 11:30:23;;;;;;;27.90;25.30;;;;;;;;;;5092683;28;20059;-59
2022/02/11 11:33:04;;;;;;;28.65;25.80;;;;;;;;;;5092987;28;20024;-58
2022/02/11 11:35:37;;;;;;;28.23;25.30;;;;;;;;;;5092337;28;20073;-56
2022/02/11 11:38:20;;;;;;;29.23;25.42;;;3.90;99.90;;;;;;5092977;28;20026;-59
2022/02/11 11:41:04;;;;;;;27.88;18.70;;;;;;;;;;5093598;28;20024;-57
2022/02/11 11:43:37;;;;;;;25.17;15.50;;;;;;;;;;5092565;28;20025;-61
2022/02/11 11:46:23;;;;;;;23.95;15.05;;;;;;;;;;5092658;28;20113;-60
2022/02/11 11:48:53;;;;;;;16.08;12.55;;;;;;;;;;5090318;28;20023;-60
2022/02/11 11:51:23;;;;;;;21.92;12.55;;;;;;;;;;5066914;28;20177;-56
2022/02/11 11:53:49;;;;;;;22.10;12.65;;;;;;;;;;5062779;28;20035;-59
2022/02/11 11:56:35;;;;;;;24.38;13.25;;;4.80;99.90;;;;;;5082835;28;20091;-62
2022/02/11 11:59:14;;;;;;;19.30;11.27;;;;;;;;;;5082198;28;20024;-61
2022/02/11 12:01:59;;;;;;;15.93;9.48;;;;;;;;;;5065950;28;20031;-60
2022/02/11 12:04:28;;;;;;;19.08;9.35;;;;;;;;;;5062902;28;20104;-58
2022/02/11 12:06:54;;;;;;;20.27;9.48;;;;;;;;;;5081897;28;20027;-58
2022/02/11 12:09:20;;;;;;;18.05;9.20;;;;;;;;;;5094330;28;20036;-61
2022/02/11 12:11:47;;;;;;;16.63;8.98;;;7.40;99.90;;;;;;5079574;28;20028;-59
2022/02/11 12:14:15;;;;;;;21.75;9.88;;;6.30;99.90;;;;;;5073763;28;20016;-61
2022/02/11 12:16:40;;;;;;;18.10;9.20;;;6.20;99.90;;;;;;5081078;28;20035;-60
2022/02/11 12:19:06;;;;;;;16.70;9.55;;;6.30;99.90;;;;;;5089657;28;20028;-59
2022/02/11 12:21:33;;;;;;;17.30;9.82;;;6.10;99.90;;;;;;5054948;28;20472;-57
2022/02/11 12:29:28;;;;;;;17.02;7.85;;;;;;;;;;5092148;28;20027;-58
2022/02/11 12:31:55;;;;;;;20.83;9.30;;;;;;;;;;5086326;28;20427;-60
2022/02/11 12:34:21;;;;;;;21.58;8.88;;;;;;;;;;5058794;28;20044;-59
2022/02/11 12:36:48;;;;;;;23.55;14.40;;;;;;;;;;5081439;28;20102;-59
2022/02/11 12:39:21;;;;;;;24.13;15.73;;;;;;;;;;5072697;28;20050;-61
2022/02/11 12:41:51;;;;;;;21.20;19.02;;;;;;;;;;5079712;28;20024;-60
2022/02/11 12:44:30;;;;;;;26.83;24.13;;;;;;;;;;5078444;28;20066;-59
2022/02/11 12:46:59;;;;;;;28.80;26.02;;;;;;;;;;5095981;28;20028;-57
2022/02/11 12:49:25;;;;;;;32.53;29.52;;;;;;;;;;5092622;28;20016;-62
2022/02/11 12:51:56;;;;;;;30.83;27.88;;;;;;;;;;5076190;28;20029;-60
2022/02/11 12:54:22;;;;;;;24.58;21.50;;;;;;;;;;5091188;28;20496;-62
2022/02/11 12:56:49;;;;;;;32.75;20.92;;;;;;;;;;5114831;22;20028;-63
2022/02/11 12:59:15;;;;;;;21.63;19.00;;;;;;;;;;5075330;28;20028;-68
2022/02/11 13:01:42;;;;;;;23.02;19.65;;;;;;;;;;5077370;28;20073;-66
2022/02/11 13:04:08;;;;;;;23.15;19.75;;;;;;;;;;5075045;28;20111;-66
2022/02/11 13:06:35;;;;;;;21.52;18.30;;;;;;;;;;5076025;28;20029;-65
2022/02/11 13:09:05;;;;;;;23.50;17.77;;;5.90;99.90;;;;;;5056825;28;20036;-67
2022/02/11 13:11:32;;;;;;;26.83;17.05;;;5.60;99.90;;;;;;5056369;28;20025;-67
2022/02/11 13:14:08;;;;;;;30.77;16.70;;;5.70;99.90;;;;;;5057280;28;20399;-66
2022/02/11 13:16:35;;;;;;;22.95;14.93;;;5.80;99.90;;;;;;5054550;28;20568;-65
2022/02/11 13:19:17;;;;;;;25.88;15.63;;;;;;;;;;5054450;28;20088;-66
2022/02/11 13:21:43;;;;;;;24.30;14.30;;;;;;;;;;5055708;28;20479;-66
2022/02/11 13:24:09;;;;;;;23.25;13.80;;;5.80;99.90;;;;;;5053938;28;20037;-65
2022/02/11 13:26:36;;;;;;;24.38;13.80;;;6.90;99.90;;;;;;5055080;28;20086;-67
2022/02/11 13:29:02;;;;;;;24.25;14.45;;;7.50;99.90;;;;;;5054339;28;20053;-67
2022/02/11 13:31:45;;;;;;;22.42;14.55;;;8.40;99.90;;;;;;5053887;28;20392;-66
2022/02/11 13:34:11;;;;;;;20.20;12.73;;;8.80;99.90;;;;;;5054927;28;20021;-67
2022/02/11 13:36:37;;;;;;;19.88;11.55;;;9.10;99.90;;;;;;5054771;28;20032;-67
2022/02/11 13:39:03;;;;;;;27.05;12.57;;;9.10;99.90;;;;;;5053967;28;20040;-67
2022/02/11 13:41:35;;;;;;;18.08;11.18;;;9.00;99.90;;;;;;5055024;28;20021;-68
2022/02/11 13:44:07;;;;;;;42.55;33.10;;;8.50;99.90;;;;;;5051423;28;20481;-68
2022/02/11 13:46:39;;;;;;;22.65;12.43;;;8.20;99.90;;;;;;5051406;28;20037;-65
2022/02/11 13:49:10;;;;;;;21.35;11.18;;;8.50;99.90;;;;;;5052144;28;20021;-66
2022/02/11 13:51:37;;;;;;;20.08;11.25;;;8.60;99.90;;;;;;5052849;28;20032;-67
2022/02/11 13:54:15;;;;;;;17.73;9.20;;;9.40;99.90;;;;;;5052452;28;20163;-66
2022/02/11 13:56:46;;;;;;;21.50;10.00;;;10.50;99.90;;;;;;5051280;28;20032;-64
2022/02/11 13:59:15;;;;;;;21.42;9.25;;;10.90;99.90;;;;;;5052504;28;20072;-66
2022/02/11 14:01:44;;;;;;;16.30;8.60;;;11.30;99.90;;;;;;5051517;28;20021;-65
2022/02/11 14:04:17;;;;;;;16.83;8.20;;;11.00;99.90;;;;;;5051867;28;20528;-64
2022/02/11 14:07:02;;;;;;;17.08;7.53;;;9.60;99.90;;;;;;5050927;28;20037;-67
2022/02/11 14:09:35;;;;;;;16.48;7.35;;;8.10;99.90;;;;;;5052881;28;20086;-66
2022/02/11 14:12:04;;;;;;;18.15;6.88;;;7.20;99.90;;;;;;5052262;28;20028;-66
2022/02/11 14:14:32;;;;;;;17.45;7.70;;;7.10;99.90;;;;;;5052347;28;20385;-66
2022/02/11 14:16:58;;;;;;;17.95;7.75;;;7.90;99.90;;;;;;5051303;28;20024;-67
2022/02/11 14:19:25;;;;;;;20.67;7.45;;;9.50;99.90;;;;;;5053105;28;20029;-65
2022/02/11 14:21:59;;;;;;;16.27;7.70;;;10.40;99.90;;;;;;5051034;28;20441;-66
2022/02/11 14:24:26;;;;;;;16.85;7.03;;;10.90;99.90;;;;;;5052451;28;20029;-68
2022/02/11 14:26:53;;;;;;;20.02;8.77;;;11.50;99.90;;;;;;5051015;28;20049;-66
2022/02/11 14:29:20;;;;;;;19.25;8.80;;;10.60;99.90;;;;;;5052068;28;20028;-68
2022/02/11 14:31:47;;;;;;;16.30;7.57;;;9.80;99.90;;;;;;5052024;28;20025;-66
2022/02/11 14:34:14;;;;;;;18.52;8.20;;;9.70;99.90;;;;;;5050486;28;20033;-65
2022/02/11 14:36:42;;;;;;;15.13;7.70;;;9.90;99.90;;;;;;5052345;28;20071;-66
2022/02/11 14:39:16;;;;;;;18.35;7.50;;;9.70;99.90;;;;;;5051789;28;20021;-66
2022/02/11 14:41:47;;;;;;;15.32;7.40;;;9.50;99.90;;;;;;5052169;28;20071;-66
2022/02/11 14:44:27;;;;;;;18.75;8.80;;;9.70;99.90;;;;;;5046919;28;20052;-66
2022/02/11 14:46:54;;;;;;;14.88;8.27;;;9.70;99.90;;;;;;5032368;28;20128;-65
2022/02/11 14:49:21;;;;;;;18.50;8.18;;;10.00;99.90;;;;;;5031102;28;20474;-65
2022/02/11 14:51:52;;;;;;;20.58;8.85;;;9.80;99.90;;;;;;5031126;28;20417;-63
2022/02/11 14:54:18;;;;;;;15.95;7.32;;;9.30;99.90;;;;;;5032031;28;20025;-66
2022/02/11 14:56:44;;;;;;;17.55;7.95;;;8.80;99.90;;;;;;5031922;28;20048;-64
2022/02/11 14:59:10;;;;;;;17.85;7.55;;;7.70;99.90;;;;;;5032135;28;20025;-68
2022/02/11 15:01:37;;;;;;;18.50;7.85;;;;;;;;;;5031758;28;20025;-68
2022/02/11 15:04:03;;;;;;;20.55;8.57;;;7.50;99.90;;;;;;5031935;28;20063;-67
2022/02/11 15:06:29;;;;;;;19.60;8.00;;;6.90;99.90;;;;;;5032540;28;20025;-65
2022/02/11 15:08:54;;;;;;;17.42;8.05;;;6.70;99.90;;;;;;5031880;28;20104;-69
2022/02/11 15:11:20;;;;;;;16.50;7.88;;;6.50;99.90;;;;;;5031805;28;20026;-66
2022/02/11 15:13:46;;;;;;;19.50;7.30;;;6.50;99.90;;;;;;5031654;28;20099;-66
2022/02/11 15:16:11;;;;;;;19.27;8.52;;;6.50;99.90;;;;;;5031196;28;20084;-67
2022/02/11 15:18:37;;;;;;;21.20;8.23;;;6.40;99.90;;;;;;5029965;28;20077;-65
2022/02/11 15:21:06;;;;;;;15.50;7.72;;;6.40;99.90;;;;;;5031583;28;20060;-65
2022/02/11 15:23:35;;;;;;;;;;;6.50;99.90;;;;;;5031812;28;20030;-65
2022/02/11 15:26:03;;;;;;;17.17;7.57;;;6.40;99.90;;;;;;5031028;28;19915;-66
2022/02/11 15:28:30;;;;;;;20.67;6.70;;;6.50;99.90;;;;;;5031319;28;20104;-66
2022/02/11 15:30:56;;;;;;;22.42;8.48;;;6.30;99.90;;;;;;5031573;28;20038;-67
2022/02/11 15:33:21;;;;;;;21.05;7.63;;;6.30;99.90;;;;;;5031265;28;20044;-65
2022/02/11 15:35:47;;;;;;;20.33;8.10;;;6.20;99.90;;;;;;5041747;28;20347;-64
2022/02/11 15:38:13;;;;;;;20.65;7.95;;;6.20;99.90;;;;;;5050855;28;20040;-66
2022/02/11 15:40:39;;;;;;;17.35;7.07;;;6.10;99.90;;;;;;5051030;28;20025;-64
2022/02/11 15:43:04;;;;;;;20.48;7.50;;;6.10;99.90;;;;;;5051046;28;20025;-65
2022/02/11 15:45:30;;;;;;;14.25;6.82;;;5.90;99.90;;;;;;5050319;28;20021;-68
2022/02/11 15:47:56;;;;;;;19.45;7.20;;;5.90;99.90;;;;;;5050723;28;20096;-66
2022/02/11 15:50:22;;;;;;;24.98;7.13;;;6.30;99.90;;;;;;5049527;28;20556;-66
2022/02/11 15:52:49;;;;;;;22.77;7.60;;;6.50;99.90;;;;;;5050823;28;20035;-65
2022/02/11 15:55:16;;;;;;;18.25;7.13;;;6.30;99.90;;;;;;5049250;28;20032;-66
2022/02/11 15:57:42;;;;;;;18.40;7.07;;;6.20;99.90;;;;;;5050548;28;20039;-67
2022/02/11 16:00:09;;;;;;;19.25;7.10;;;6.10;99.90;;;;;;5050749;28;20029;-66
2022/02/11 16:02:34;;;;;;;19.40;7.30;;;6.10;99.90;;;;;;5051038;28;20031;-67
2022/02/11 16:05:00;;;;;;;17.85;6.43;;;5.80;99.90;;;;;;5050224;28;20477;-67
2022/02/11 16:07:27;;;;;;;17.55;6.38;;;5.70;99.90;;;;;;5050626;28;20447;-67
2022/02/11 16:09:54;;;;;;;19.85;7.05;;;5.70;99.90;;;;;;5050853;28;20025;-69
2022/02/11 16:12:20;;;;;;;19.15;6.78;;;5.70;99.90;;;;;;5050510;28;20021;-66
2022/02/11 16:14:46;;;;;;;17.70;7.30;;;5.70;99.90;;;;;;5050007;28;20025;-67
2022/02/11 16:17:12;;;;;;;19.05;6.78;;;5.70;99.90;;;;;;5050646;28;20078;-67
2022/02/11 16:19:38;;;;;;;20.20;7.43;;;;;;;;;;5050758;28;20112;-66
2022/02/11 16:22:05;;;;;;;20.35;6.80;;;5.60;99.90;;;;;;5050506;28;20048;-65
2022/02/11 16:24:32;;;;;;;16.42;6.85;;;;;;;;;;5048673;28;20025;-67
2022/02/11 16:26:58;;;;;;;16.00;5.88;;;;;;;;;;5050011;28;20025;-67
2022/02/11 16:29:25;;;;;;;15.90;7.10;;;;;;;;;;5049902;28;20366;-67
2022/02/11 16:31:52;;;;;;;21.77;7.57;;;;;;;;;;5049684;28;20017;-67
2022/02/11 16:34:19;;;;;;;14.50;6.32;;;;;;;;;;5048664;28;20536;-63
2022/02/11 16:36:45;;;;;;;19.23;7.05;;;;;;;;;;5049971;28;20493;-68
2022/02/11 16:39:13;;;;;;;18.33;6.85;;;5.70;99.90;;;;;;5050192;28;20064;-67
2022/02/11 16:41:39;;;;;;;21.63;8.40;;;5.60;99.90;;;;;;5050124;28;20033;-67
2022/02/11 16:44:05;;;;;;;15.93;6.55;;;5.60;99.90;;;;;;5050332;28;20021;-66
2022/02/11 16:46:34;;;;;;;24.70;8.38;;;;;;;;;;5050205;28;20060;-69
2022/02/11 16:48:59;;;;;;;18.58;6.97;;;5.60;99.90;;;;;;5050126;28;20017;-67
2022/02/11 16:51:25;;;;;;;18.20;7.43;;;;;;;;;;5050186;28;20101;-68
2022/02/11 16:53:51;;;;;;;18.58;7.35;;;5.50;99.90;;;;;;5050222;28;20017;-66
2022/02/11 16:56:17;;;;;;;15.95;6.90;;;5.50;99.90;;;;;;5048713;28;20258;-67
2022/02/11 16:58:42;;;;;;;15.95;6.63;;;5.50;99.90;;;;;;5048712;28;20031;-67
2022/02/11 17:01:08;;;;;;;19.75;7.30;;;5.50;99.90;;;;;;5050067;28;20049;-68
2022/02/11 17:03:34;;;;;;;21.88;7.78;;;5.50;99.90;;;;;;5050416;28;20032;-66
2022/02/11 17:05:59;;;;;;;19.67;8.10;;;5.30;99.90;;;;;;5049774;28;20078;-67
2022/02/11 17:08:25;;;;;;;23.55;6.75;;;5.30;99.90;;;;;;5050131;28;20071;-67
2022/02/11 17:10:52;;;;;;;24.13;7.82;;;;;;;;;;5049929;28;20021;-66